Time;durP1;ratioP1;P1;durP2;ratioP2;P2;SDS_P1;SDS_P2;PMS_P1;PMS_P2;Temp;Humidity;BMP_temperature;BMP_pressure;BME280_temperature;BME280_humidity;BME280_pressure;Samples;Min_cycle;Max_cycle;Signal;HPM_P1;HPM_P2
2022/09/01 00:00:20;;;;;;;4.97;2.60;;;15.70;99.90;;;;;;4991865;28;20491;-67
2022/09/01 00:02:46;;;;;;;5.80;2.45;;;15.70;99.90;;;;;;4992560;28;20104;-67
2022/09/01 00:05:12;;;;;;;6.68;3.35;;;15.70;99.90;;;;;;4992538;28;20021;-67
2022/09/01 00:07:37;;;;;;;4.95;2.22;;;15.60;99.90;;;;;;4993754;28;20030;-68
2022/09/01 00:10:06;;;;;;;3.97;2.45;;;15.60;99.90;;;;;;4993906;28;20053;-68
2022/09/01 00:12:31;;;;;;;4.70;2.28;;;15.60;99.90;;;;;;4994507;28;20018;-67
2022/09/01 00:14:58;;;;;;;8.52;3.60;;;15.50;99.90;;;;;;4994708;28;20512;-71
2022/09/01 00:17:24;;;;;;;6.43;3.05;;;15.50;99.90;;;;;;4995400;28;20054;-68
2022/09/01 00:19:50;;;;;;;7.13;3.00;;;15.50;99.90;;;;;;4995630;28;20049;-68
2022/09/01 00:22:15;;;;;;;6.95;3.00;;;15.40;99.90;;;;;;4995550;28;20111;-68
2022/09/01 00:24:41;;;;;;;6.35;2.90;;;15.40;99.90;;;;;;4994917;28;20356;-67
2022/09/01 00:27:07;;;;;;;5.80;3.00;;;15.40;99.90;;;;;;4993892;28;20034;-68
2022/09/01 00:29:33;;;;;;;8.35;3.08;;;15.30;99.90;;;;;;4995604;28;20058;-67
2022/09/01 00:31:59;;;;;;;7.82;3.05;;;15.30;99.90;;;;;;4995556;28;20064;-67
2022/09/01 00:34:24;;;;;;;6.15;3.33;;;15.30;99.90;;;;;;4995935;28;20050;-67
2022/09/01 00:36:50;;;;;;;6.50;3.08;;;15.20;99.90;;;;;;4993906;28;20708;-69
2022/09/01 00:39:16;;;;;;;6.78;3.33;;;15.20;99.90;;;;;;4993827;28;20093;-67
2022/09/01 00:41:43;;;;;;;9.43;3.22;;;15.20;99.90;;;;;;4993516;28;20014;-65
2022/09/01 00:44:13;;;;;;;7.32;3.00;;;15.20;99.90;;;;;;4995026;28;20027;-67
2022/09/01 00:46:45;;;;;;;8.15;3.08;;;15.20;99.90;;;;;;4993911;28;20357;-69
2022/09/01 00:49:14;;;;;;;;;;;15.10;99.90;;;;;;4995894;28;20477;-68
2022/09/01 00:51:46;;;;;;;5.15;2.80;;;15.10;99.90;;;;;;4995274;28;19945;-68
2022/09/01 00:54:20;;;;;;;6.68;3.03;;;15.00;99.90;;;;;;4993674;28;20054;-68
2022/09/01 00:56:46;;;;;;;5.15;3.20;;;15.00;99.90;;;;;;4992531;28;20034;-70
2022/09/01 00:59:15;;;;;;;5.75;3.40;;;15.00;99.90;;;;;;4993782;28;20049;-71
2022/09/01 01:01:40;;;;;;;7.93;3.35;;;14.90;99.90;;;;;;4993674;28;20077;-70
2022/09/01 01:04:13;;;;;;;7.75;3.22;;;14.90;99.90;;;;;;4993270;28;20425;-71
2022/09/01 01:06:42;;;;;;;6.90;3.40;;;14.90;99.90;;;;;;4993458;28;20014;-67
2022/09/01 01:09:08;;;;;;;6.88;3.55;;;14.90;99.90;;;;;;4993124;28;20042;-73
2022/09/01 01:11:34;;;;;;;9.00;3.40;;;14.90;99.90;;;;;;4992963;28;20061;-71
2022/09/01 01:14:10;;;;;;;5.97;3.20;;;14.90;99.90;;;;;;4993286;28;20053;-67
2022/09/01 01:16:43;;;;;;;7.28;3.40;;;14.90;99.90;;;;;;4991504;28;20507;-66
2022/09/01 01:23:01;;;;;;;7.20;3.35;;;14.80;99.90;;;;;;4990839;28;20061;-69
2022/09/01 01:25:33;;;;;;;6.47;3.42;;;14.80;99.90;;;;;;4992146;28;20073;-68
2022/09/01 01:28:03;;;;;;;;;;;14.80;99.90;;;;;;4993378;28;20384;-68
2022/09/01 01:30:32;;;;;;;5.82;3.40;;;14.80;99.90;;;;;;4991358;28;20263;-67
2022/09/01 01:32:58;;;;;;;7.15;3.30;;;14.80;99.90;;;;;;4993050;28;20464;-68
2022/09/01 01:35:25;;;;;;;8.07;4.00;;;14.70;99.90;;;;;;4992274;28;20022;-69
2022/09/01 01:37:50;;;;;;;12.15;4.88;;;14.70;99.90;;;;;;4992878;28;20022;-67
2022/09/01 01:40:21;;;;;;;11.80;5.45;;;14.70;99.90;;;;;;4992640;28;20023;-70
2022/09/01 01:42:50;;;;;;;8.43;5.45;;;14.70;99.90;;;;;;4993996;28;20022;-67
2022/09/01 01:45:18;;;;;;;10.55;5.32;;;14.70;99.90;;;;;;4992175;28;20033;-71
2022/09/01 01:47:55;;;;;;;9.88;5.57;;;14.70;99.90;;;;;;4992339;28;20022;-69
2022/09/01 01:50:34;;;;;;;8.40;5.28;;;14.70;99.90;;;;;;4992134;28;20034;-67
2022/09/01 01:53:04;;;;;;;14.77;5.55;;;14.60;99.90;;;;;;4992872;28;20042;-67
2022/09/01 01:55:30;;;;;;;9.63;5.80;;;14.60;99.90;;;;;;4993233;28;20038;-69
2022/09/01 01:57:57;;;;;;;14.27;6.00;;;14.60;99.90;;;;;;4993890;28;20026;-70
2022/09/01 02:00:33;;;;;;;10.55;5.45;;;14.60;99.90;;;;;;4993598;28;20026;-71
2022/09/01 02:02:59;;;;;;;9.23;4.95;;;14.60;99.90;;;;;;4993157;28;20377;-69
2022/09/01 02:05:28;;;;;;;11.20;5.28;;;14.60;99.90;;;;;;4993209;28;20145;-69
2022/09/01 02:07:58;;;;;;;8.85;4.43;;;14.50;99.90;;;;;;4993143;28;20117;-70
2022/09/01 02:10:30;;;;;;;8.93;4.43;;;14.50;99.90;;;;;;4993412;28;20061;-66
2022/09/01 02:13:03;;;;;;;12.68;4.72;;;14.50;99.90;;;;;;4993624;28;20077;-72
2022/09/01 02:15:44;;;;;;;7.20;3.97;;;14.60;99.90;;;;;;4992889;28;20027;-69
2022/09/01 02:18:23;;;;;;;7.07;4.05;;;14.60;99.90;;;;;;4993180;28;20160;-67
2022/09/01 02:20:50;;;;;;;9.40;4.32;;;14.50;99.90;;;;;;4993209;28;20126;-68
2022/09/01 02:23:22;;;;;;;7.88;3.95;;;14.50;99.90;;;;;;4992757;28;20452;-68
2022/09/01 02:25:49;;;;;;;6.90;4.00;;;14.60;99.90;;;;;;4992969;28;20026;-68
2022/09/01 02:28:17;;;;;;;6.97;3.95;;;14.50;99.90;;;;;;4993017;28;20025;-68
2022/09/01 02:30:50;;;;;;;7.93;4.30;;;14.50;99.90;;;;;;4992848;28;20450;-68
2022/09/01 02:33:18;;;;;;;14.27;4.25;;;14.50;99.90;;;;;;4993154;28;20023;-72
2022/09/01 02:35:45;;;;;;;8.23;4.25;;;14.50;99.90;;;;;;4991564;28;20377;-68
2022/09/01 02:38:12;;;;;;;9.68;3.97;;;14.50;99.90;;;;;;4993131;28;20018;-67
2022/09/01 02:40:40;;;;;;;11.30;3.80;;;14.50;99.90;;;;;;4992882;28;20902;-67
2022/09/01 02:43:05;;;;;;;7.25;3.70;;;14.50;99.90;;;;;;4993223;28;20085;-67
2022/09/01 02:45:32;;;;;;;12.23;4.38;;;14.40;99.90;;;;;;4992863;28;20412;-67
2022/09/01 02:47:57;;;;;;;10.45;4.35;;;14.40;99.90;;;;;;4992738;28;20018;-69
2022/09/01 02:50:24;;;;;;;9.88;3.85;;;14.40;99.90;;;;;;4992843;28;20038;-68
2022/09/01 02:52:51;;;;;;;8.73;3.75;;;14.40;99.90;;;;;;4992443;28;20022;-66
2022/09/01 02:55:21;;;;;;;8.38;4.00;;;14.40;99.90;;;;;;4972948;28;20041;-67
2022/09/01 02:57:55;;;;;;;6.88;3.75;;;14.40;99.90;;;;;;4973374;28;20033;-69
2022/09/01 03:00:30;;;;;;;7.72;3.92;;;14.40;99.90;;;;;;4973481;28;20034;-68
2022/09/01 03:02:57;;;;;;;8.90;4.30;;;14.40;99.90;;;;;;4973382;28;20111;-68
2022/09/01 03:05:25;;;;;;;7.65;4.03;;;14.40;99.90;;;;;;4973282;28;20065;-69
2022/09/01 03:07:55;;;;;;;8.45;3.88;;;14.40;99.90;;;;;;4973010;28;20548;-68
2022/09/01 03:10:29;;;;;;;11.10;4.18;;;14.40;99.90;;;;;;4972672;28;20129;-67
2022/09/01 03:12:55;;;;;;;10.18;3.90;;;14.40;99.90;;;;;;4973187;28;20106;-67
2022/09/01 03:15:22;;;;;;;10.00;4.80;;;14.40;99.90;;;;;;4973166;28;20130;-68
2022/09/01 03:17:47;;;;;;;8.48;3.80;;;14.40;99.90;;;;;;4980836;28;20586;-67
2022/09/01 03:20:13;;;;;;;10.50;4.28;;;14.30;99.90;;;;;;4992245;28;20109;-68
2022/09/01 03:22:39;;;;;;;8.07;4.05;;;14.30;99.90;;;;;;4992840;28;20026;-67
2022/09/01 03:25:05;;;;;;;9.57;4.07;;;14.30;99.90;;;;;;4992756;28;20049;-69
2022/09/01 03:27:30;;;;;;;12.32;3.88;;;14.40;99.90;;;;;;4992622;28;20121;-68
2022/09/01 03:29:56;;;;;;;9.30;4.18;;;14.30;99.90;;;;;;4992414;28;20037;-68
2022/09/01 03:32:21;;;;;;;8.13;3.78;;;14.30;99.90;;;;;;4992362;28;20035;-67
2022/09/01 03:34:47;;;;;;;7.95;4.13;;;14.40;99.90;;;;;;4992523;28;20034;-70
2022/09/01 03:37:12;;;;;;;7.10;3.80;;;14.30;99.90;;;;;;4992325;28;20023;-68
2022/09/01 03:39:38;;;;;;;7.82;4.03;;;14.30;99.90;;;;;;4992370;28;20023;-69
2022/09/01 03:42:07;;;;;;;9.40;4.15;;;14.30;99.90;;;;;;4993859;28;20475;-71
2022/09/01 03:44:34;;;;;;;10.13;4.53;;;14.30;99.90;;;;;;4995988;28;20482;-68
2022/09/01 03:47:00;;;;;;;9.88;4.38;;;14.30;99.90;;;;;;4995953;28;20026;-67
2022/09/01 03:49:27;;;;;;;8.55;4.18;;;14.30;99.90;;;;;;4995997;28;20081;-67
2022/09/01 03:51:52;;;;;;;12.30;4.05;;;14.30;99.90;;;;;;4996052;28;20026;-70
2022/09/01 03:54:23;;;;;;;7.07;4.47;;;14.30;99.90;;;;;;4996351;28;20037;-72
2022/09/01 03:56:49;;;;;;;8.77;4.00;;;14.30;99.90;;;;;;4995971;28;20357;-67
2022/09/01 03:59:18;;;;;;;8.30;4.53;;;14.30;99.90;;;;;;4995835;28;20030;-68
2022/09/01 04:01:44;;;;;;;7.97;3.85;;;14.30;99.90;;;;;;4995813;28;20022;-71
2022/09/01 04:04:14;;;;;;;6.60;3.63;;;14.30;99.90;;;;;;4995733;28;20093;-68
2022/09/01 04:06:42;;;;;;;7.13;3.78;;;14.30;99.90;;;;;;4994508;28;20022;-68
2022/09/01 04:09:09;;;;;;;8.68;3.72;;;14.30;99.90;;;;;;4995688;28;20053;-66
2022/09/01 04:11:38;;;;;;;6.72;3.45;;;14.30;99.90;;;;;;4995838;28;20057;-67
2022/09/01 04:14:04;;;;;;;9.85;3.90;;;14.30;99.90;;;;;;4994081;28;20022;-70
2022/09/01 04:19:24;;;;;;;5.30;3.45;;;14.30;99.90;;;;;;4975823;28;20528;-68
2022/09/01 04:21:53;;;;;;;5.57;3.33;;;14.30;99.90;;;;;;4976135;28;20030;-69
2022/09/01 04:24:19;;;;;;;8.05;3.60;;;14.20;99.90;;;;;;4976030;28;20061;-68
2022/09/01 04:26:46;;;;;;;6.45;3.03;;;14.30;99.90;;;;;;4975805;28;20026;-67
2022/09/01 04:29:12;;;;;;;8.50;3.60;;;14.20;99.90;;;;;;4975861;28;20075;-67
2022/09/01 04:31:39;;;;;;;6.85;2.95;;;14.20;99.90;;;;;;4975887;28;20385;-67
2022/09/01 04:34:12;;;;;;;10.57;3.67;;;14.20;99.90;;;;;;4974535;28;20110;-67
2022/09/01 04:36:43;;;;;;;5.30;3.50;;;14.20;99.90;;;;;;4975867;28;20019;-68
2022/09/01 04:39:11;;;;;;;6.88;3.60;;;14.20;99.90;;;;;;4975561;28;20144;-67
2022/09/01 04:41:41;;;;;;;6.10;3.75;;;14.20;99.90;;;;;;4975540;28;20022;-69
2022/09/01 04:44:08;;;;;;;8.00;4.07;;;14.20;99.90;;;;;;4975223;28;20405;-67
2022/09/01 04:46:37;;;;;;;7.22;3.85;;;14.20;99.90;;;;;;4975813;28;20172;-67
2022/09/01 04:49:08;;;;;;;6.75;3.88;;;14.20;99.90;;;;;;4974007;28;20046;-67
2022/09/01 04:51:41;;;;;;;8.65;3.80;;;14.10;99.90;;;;;;4975626;28;20167;-68
2022/09/01 04:54:13;;;;;;;6.22;3.78;;;14.20;99.90;;;;;;4975341;28;20050;-69
2022/09/01 04:56:41;;;;;;;7.03;4.07;;;14.20;99.90;;;;;;4975503;28;20027;-69
2022/09/01 04:59:09;;;;;;;6.03;3.80;;;14.20;99.90;;;;;;4974920;28;20060;-67
2022/09/01 05:01:42;;;;;;;7.35;4.07;;;14.20;99.90;;;;;;4975385;28;20441;-69
2022/09/01 05:04:08;;;;;;;;;;;14.20;99.90;;;;;;4975783;28;20022;-67
2022/09/01 05:06:38;;;;;;;6.50;3.42;;;14.30;99.90;;;;;;4975417;28;19996;-68
2022/09/01 05:09:04;;;;;;;4.65;3.25;;;14.30;99.90;;;;;;4975205;28;20057;-67
2022/09/01 05:11:31;;;;;;;6.53;3.30;;;14.30;99.90;;;;;;4974125;28;20114;-70
2022/09/01 05:13:57;;;;;;;6.90;3.33;;;14.30;99.90;;;;;;4975339;28;20511;-67
2022/09/01 05:16:26;;;;;;;7.82;3.20;;;14.40;99.90;;;;;;4975166;28;20058;-68
2022/09/01 05:18:54;;;;;;;4.00;2.85;;;14.40;99.90;;;;;;4990785;28;20014;-68
2022/09/01 05:21:23;;;;;;;8.18;3.15;;;14.40;99.90;;;;;;4994613;28;20209;-68
2022/09/01 05:23:50;;;;;;;5.32;3.17;;;14.50;99.90;;;;;;4994589;28;20026;-68
2022/09/01 05:26:22;;;;;;;7.20;3.00;;;14.50;99.90;;;;;;4994540;28;20133;-67
2022/09/01 05:28:52;;;;;;;5.90;3.10;;;14.50;99.90;;;;;;4994610;28;20084;-67
2022/09/01 05:31:19;;;;;;;6.63;3.20;;;14.60;99.90;;;;;;4993919;28;20077;-70
2022/09/01 05:33:48;;;;;;;9.52;3.10;;;14.60;99.90;;;;;;4994325;28;20109;-69
2022/09/01 05:36:16;;;;;;;5.65;2.95;;;14.70;99.90;;;;;;4994341;28;20098;-66
2022/09/01 05:38:43;;;;;;;9.50;3.20;;;14.70;99.90;;;;;;4994148;28;20023;-68
2022/09/01 05:41:13;;;;;;;4.78;3.05;;;14.80;99.90;;;;;;4994466;28;20018;-71
2022/09/01 05:43:44;;;;;;;7.07;3.20;;;14.80;99.90;;;;;;4994289;28;20054;-70
2022/09/01 05:46:09;;;;;;;6.40;3.20;;;14.80;99.90;;;;;;4993815;28;20022;-69
2022/09/01 05:48:38;;;;;;;10.27;3.75;;;14.90;99.90;;;;;;4994480;28;20061;-66
2022/09/01 05:51:05;;;;;;;5.28;3.20;;;14.90;99.90;;;;;;4993692;28;20030;-70
2022/09/01 05:53:32;;;;;;;6.00;3.10;;;14.90;99.90;;;;;;4993967;28;20488;-69
2022/09/01 05:56:05;;;;;;;5.65;2.85;;;14.90;99.90;;;;;;4993594;28;20023;-67
2022/09/01 05:58:33;;;;;;;8.05;2.97;;;15.00;99.90;;;;;;4992249;28;20535;-67
2022/09/01 06:00:59;;;;;;;8.48;3.10;;;15.10;99.90;;;;;;4993589;28;20019;-69
2022/09/01 06:03:26;;;;;;;7.40;3.35;;;15.20;99.90;;;;;;4993458;28;20025;-67
2022/09/01 06:05:54;;;;;;;7.25;3.08;;;15.20;99.90;;;;;;4993240;28;20029;-68
2022/09/01 06:08:22;;;;;;;7.65;3.00;;;15.30;99.90;;;;;;4993722;28;20354;-70
2022/09/01 06:10:49;;;;;;;7.47;3.15;;;15.40;99.90;;;;;;4993405;28;20034;-68
2022/09/01 06:13:16;;;;;;;4.97;2.65;;;15.50;99.90;;;;;;4993433;28;20077;-67
2022/09/01 06:15:43;;;;;;;8.07;2.97;;;15.60;99.90;;;;;;4993782;28;20030;-68
2022/09/01 06:18:11;;;;;;;6.80;2.42;;;15.70;99.90;;;;;;4993515;28;20022;-67
2022/09/01 06:20:42;;;;;;;4.82;2.33;;;15.80;99.90;;;;;;4993722;28;20018;-68
2022/09/01 06:23:11;;;;;;;4.72;2.55;;;15.90;99.90;;;;;;4993342;28;20022;-68
2022/09/01 06:25:38;;;;;;;2.80;2.25;;;16.00;99.90;;;;;;4993247;28;20081;-66
2022/09/01 06:28:04;;;;;;;7.45;2.60;;;16.10;99.90;;;;;;4991468;28;20453;-67
2022/09/01 06:30:35;;;;;;;5.20;2.40;;;16.20;99.90;;;;;;4993302;28;20034;-68
2022/09/01 06:33:04;;;;;;;6.78;2.25;;;16.30;99.90;;;;;;4993548;28;20447;-67
2022/09/01 06:35:31;;;;;;;3.92;2.35;;;16.40;99.90;;;;;;4993304;28;20022;-68
2022/09/01 06:37:57;;;;;;;5.88;2.30;;;16.60;99.90;;;;;;4993169;28;20400;-67
2022/09/01 06:40:24;;;;;;;7.45;2.78;;;16.70;99.90;;;;;;4992729;28;20034;-67
2022/09/01 06:42:51;;;;;;;7.13;2.55;;;16.80;99.90;;;;;;4991739;28;20010;-71
2022/09/01 06:45:20;;;;;;;6.85;2.42;;;16.90;99.90;;;;;;4990496;28;20085;-66
2022/09/01 06:47:46;;;;;;;6.95;2.58;;;17.00;99.90;;;;;;4985967;28;20018;-67
2022/09/01 06:50:14;;;;;;;4.45;2.55;;;17.10;99.90;;;;;;4991971;28;20048;-66
2022/09/01 06:52:41;;;;;;;6.22;2.40;;;17.30;99.90;;;;;;4990921;28;20362;-67
2022/09/01 06:55:11;;;;;;;5.72;2.58;;;17.40;99.90;;;;;;4992669;28;20069;-69
2022/09/01 06:57:47;;;;;;;5.57;2.20;;;17.50;99.90;;;;;;4992710;28;20460;-67
2022/09/01 07:00:17;;;;;;;6.13;2.47;;;17.70;99.90;;;;;;4993077;28;20361;-67
2022/09/01 07:02:55;;;;;;;5.80;2.35;;;17.90;99.90;;;;;;4991988;28;20018;-68
2022/09/01 07:05:21;;;;;;;4.68;2.00;;;18.10;99.90;;;;;;4991168;28;20049;-67
2022/09/01 07:07:49;;;;;;;3.38;2.00;;;18.30;99.90;;;;;;4991912;28;20453;-68
2022/09/01 07:10:19;;;;;;;3.67;2.25;;;18.40;99.90;;;;;;4991469;28;20125;-67
2022/09/01 07:12:45;;;;;;;4.15;1.90;;;18.60;99.90;;;;;;4992131;28;20065;-70
2022/09/01 07:15:14;;;;;;;4.35;1.90;;;18.70;99.90;;;;;;4992881;28;20073;-65
2022/09/01 07:17:41;;;;;;;4.40;2.17;;;18.80;99.90;;;;;;4996441;28;20088;-67
2022/09/01 07:20:08;;;;;;;4.15;2.15;;;18.90;99.90;;;;;;4996899;28;20094;-68
2022/09/01 07:22:33;;;;;;;6.88;2.45;;;19.00;99.90;;;;;;4996467;28;20014;-68
2022/09/01 07:25:00;;;;;;;5.00;2.10;;;19.20;99.90;;;;;;4995705;28;20342;-68
2022/09/01 07:27:26;;;;;;;12.63;2.83;;;19.40;99.90;;;;;;4996713;28;20480;-69
2022/09/01 07:29:55;;;;;;;7.63;2.45;;;19.70;99.90;;;;;;4996633;28;20420;-67
2022/09/01 07:32:21;;;;;;;7.57;2.20;;;20.10;99.90;;;;;;4995212;28;20034;-68
2022/09/01 07:34:46;;;;;;;3.88;2.15;;;20.60;99.90;;;;;;4996503;28;20448;-68
2022/09/01 07:37:12;;;;;;;10.40;2.55;;;21.10;98.90;;;;;;4996286;28;20077;-68
2022/09/01 07:39:43;;;;;;;8.57;2.50;;;21.50;98.20;;;;;;4996026;28;20449;-67
2022/09/01 07:42:09;;;;;;;7.53;2.50;;;21.90;97.40;;;;;;4994072;28;20069;-66
2022/09/01 07:44:37;;;;;;;5.60;2.03;;;22.40;96.50;;;;;;4994749;28;20359;-69
2022/09/01 07:47:03;;;;;;;8.55;2.40;;;23.10;95.30;;;;;;4996203;28;20467;-67
2022/09/01 07:49:29;;;;;;;9.73;2.40;;;23.80;94.10;;;;;;4996180;28;20453;-68
2022/09/01 07:51:55;;;;;;;4.72;2.05;;;24.50;93.20;;;;;;4995888;28;20030;-68
2022/09/01 07:54:22;;;;;;;4.45;2.15;;;25.30;91.90;;;;;;4995992;28;20365;-67
2022/09/01 07:56:49;;;;;;;5.72;2.50;;;26.00;90.50;;;;;;4996109;28;20015;-68
2022/09/01 07:59:14;;;;;;;5.90;2.20;;;26.80;89.60;;;;;;4995916;28;20117;-68
2022/09/01 08:01:41;;;;;;;4.60;2.45;;;27.50;86.10;;;;;;4994606;28;20093;-67
2022/09/01 08:04:07;;;;;;;4.20;2.30;;;28.10;84.40;;;;;;4995378;28;20025;-68
2022/09/01 08:06:34;;;;;;;5.95;2.65;;;28.70;82.60;;;;;;4996185;28;20022;-71
2022/09/01 08:09:00;;;;;;;4.57;2.22;;;29.30;80.90;;;;;;4994520;28;20053;-70
2022/09/01 08:11:27;;;;;;;6.60;2.05;;;29.80;79.30;;;;;;4994616;28;20026;-71
2022/09/01 08:13:54;;;;;;;6.15;2.10;;;30.50;77.20;;;;;;4994014;28;20368;-67
2022/09/01 08:16:21;;;;;;;4.20;2.03;;;30.90;75.00;;;;;;4994949;28;20037;-67
2022/09/01 08:18:48;;;;;;;6.78;2.33;;;31.10;73.40;;;;;;4994630;28;20042;-67
2022/09/01 08:21:14;;;;;;;10.77;2.30;;;31.30;73.20;;;;;;4994226;28;20021;-68
2022/09/01 08:23:40;;;;;;;4.32;1.88;;;31.40;71.50;;;;;;4995422;28;20030;-71
2022/09/01 08:26:12;;;;;;;4.60;1.90;;;31.40;71.60;;;;;;4995586;28;20135;-67
2022/09/01 08:28:38;;;;;;;5.25;1.98;;;31.50;70.80;;;;;;4994819;28;20117;-67
2022/09/01 08:31:09;;;;;;;6.78;2.30;;;31.70;70.60;;;;;;4995327;28;20491;-70
2022/09/01 08:33:39;;;;;;;3.47;1.70;;;32.00;68.80;;;;;;4995497;28;20018;-68
2022/09/01 08:36:11;;;;;;;3.50;1.65;;;32.30;68.70;;;;;;4995253;28;20138;-68
2022/09/01 08:38:37;;;;;;;2.97;1.63;;;32.60;67.60;;;;;;4995335;28;20462;-69
2022/09/01 08:41:11;;;;;;;3.83;1.67;;;32.80;66.90;;;;;;4995398;28;20034;-68
2022/09/01 08:43:46;;;;;;;9.13;2.00;;;32.80;66.50;;;;;;4995140;28;20066;-68
2022/09/01 08:46:23;;;;;;;3.95;1.10;;;32.60;65.90;;;;;;4993916;28;20527;-68
2022/09/01 08:48:56;;;;;;;6.88;1.65;;;32.60;66.10;;;;;;4995311;28;20098;-70
2022/09/01 08:51:45;;;;;;;4.10;1.55;;;32.90;65.20;;;;;;4994575;28;20036;-67
2022/09/01 08:54:33;;;;;;;6.00;1.45;;;33.10;64.30;;;;;;4993848;28;20391;-67
2022/09/01 08:57:04;;;;;;;2.72;1.23;;;33.10;63.30;;;;;;4994826;28;20437;-66
2022/09/01 08:59:30;;;;;;;6.57;1.90;;;33.00;63.50;;;;;;4995190;28;20030;-67
2022/09/01 09:02:38;;;;;;;5.55;1.35;;;33.20;63.30;;;;;;4993963;28;20491;-66
2022/09/01 09:05:23;;;;;;;3.50;1.73;;;33.40;62.50;;;;;;4994968;28;20061;-69
2022/09/01 09:08:17;;;;;;;3.75;1.50;;;33.50;62.00;;;;;;4994786;28;20129;-69
2022/09/01 09:11:01;;;;;;;5.90;1.52;;;33.70;62.30;;;;;;4994890;28;20054;-69
2022/09/01 09:13:53;;;;;;;3.28;1.83;;;34.10;61.80;;;;;;4994518;28;20022;-67
2022/09/01 09:16:24;;;;;;;6.68;1.65;;;34.60;60.80;;;;;;4991171;28;20045;-67
2022/09/01 09:19:01;;;;;;;4.05;1.63;;;35.20;59.30;;;;;;4994578;28;20121;-67
2022/09/01 09:21:42;;;;;;;2.95;1.50;;;35.50;58.30;;;;;;4992573;28;20040;-71
2022/09/01 09:24:25;;;;;;;4.80;1.73;;;35.40;57.30;;;;;;4994206;28;20030;-66
2022/09/01 09:26:53;;;;;;;6.30;1.25;;;35.20;57.70;;;;;;4974578;28;20362;-67
2022/09/01 09:29:20;;;;;;;3.03;1.35;;;35.10;57.20;;;;;;4981006;28;20610;-69
2022/09/01 09:31:49;;;;;;;4.60;1.63;;;34.90;56.60;;;;;;4994118;28;20425;-66
2022/09/01 09:34:33;;;;;;;4.57;1.60;;;34.70;56.80;;;;;;4994124;28;20081;-67
2022/09/01 09:37:26;;;;;;;4.63;1.55;;;34.70;57.00;;;;;;4994081;28;20380;-68
2022/09/01 09:40:13;;;;;;;6.15;1.70;;;34.80;56.60;;;;;;4972444;28;20031;-70
2022/09/01 09:42:57;;;;;;;4.95;1.75;;;34.90;56.60;;;;;;4974972;28;20457;-69
2022/09/01 09:45:24;;;;;;;7.15;1.73;;;34.90;56.70;;;;;;4974890;28;20037;-67
2022/09/01 09:47:50;;;;;;;5.35;1.73;;;34.90;56.80;;;;;;4974617;28;20034;-67
2022/09/01 09:50:18;;;;;;;4.72;1.52;;;35.00;57.10;;;;;;4974485;28;20481;-68
2022/09/01 09:52:45;;;;;;;7.40;1.60;;;34.80;56.50;;;;;;4973352;28;20027;-67
2022/09/01 09:56:03;;;;;;;5.70;1.77;;;34.50;56.90;;;;;;4982873;28;20026;-65
2022/09/01 09:58:36;;;;;;;2.88;1.80;;;34.60;56.70;;;;;;4977082;28;20480;-67
2022/09/01 10:01:14;;;;;;;4.22;1.42;;;34.70;56.50;;;;;;4993981;28;20023;-71
2022/09/01 10:04:00;;;;;;;14.10;2.85;;;34.80;56.50;;;;;;4993649;28;20025;-67
2022/09/01 10:06:39;;;;;;;7.32;1.85;;;35.10;55.80;;;;;;4991366;28;20084;-68
2022/09/01 10:09:08;;;;;;;6.25;1.90;;;35.30;56.10;;;;;;4993006;28;20492;-67
2022/09/01 10:11:40;;;;;;;4.55;1.75;;;35.50;56.10;;;;;;4993492;28;20053;-67
2022/09/01 10:14:28;;;;;;;5.53;1.60;;;35.60;55.90;;;;;;4993633;28;20531;-67
2022/09/01 10:17:01;;;;;;;3.83;1.85;;;35.90;55.10;;;;;;4992088;28;20031;-71
2022/09/01 10:19:28;;;;;;;5.05;1.23;;;36.00;55.00;;;;;;4992888;28;20041;-68
2022/09/01 10:21:54;;;;;;;2.80;1.30;;;35.90;54.50;;;;;;4992593;28;20022;-67
2022/09/01 10:24:40;;;;;;;4.82;1.45;;;35.70;54.20;;;;;;4992789;28;20023;-67
2022/09/01 10:27:20;;;;;;;8.20;1.70;;;35.60;54.90;;;;;;4993561;28;20076;-67
2022/09/01 10:29:49;;;;;;;5.80;1.30;;;35.70;54.80;;;;;;4993396;28;20039;-70
2022/09/01 10:32:27;;;;;;;5.38;1.50;;;35.80;54.70;;;;;;4992344;28;20248;-68
2022/09/01 10:34:53;;;;;;;1.63;1.30;;;35.70;54.60;;;;;;4990507;28;20018;-67
2022/09/01 10:37:19;;;;;;;3.15;1.33;;;35.50;54.50;;;;;;4993232;28;20049;-68
2022/09/01 10:40:16;;;;;;;2.83;1.20;;;35.40;55.40;;;;;;4992583;28;20396;-69
2022/09/01 10:42:44;;;;;;;4.82;1.85;;;35.50;54.60;;;;;;4992615;28;20034;-67
2022/09/01 10:45:33;;;;;;;4.68;1.42;;;35.70;54.40;;;;;;4993345;28;20076;-69
2022/09/01 10:48:25;;;;;;;2.05;1.50;;;35.80;53.50;;;;;;4977747;28;20022;-68
2022/09/01 10:50:54;;;;;;;5.97;1.42;;;36.00;54.30;;;;;;4972110;28;20121;-67
2022/09/01 10:53:31;;;;;;;3.83;1.30;;;36.20;54.80;;;;;;4973743;28;20022;-68
2022/09/01 10:56:45;;;;;;;4.72;1.48;;;36.70;53.90;;;;;;4973677;28;20101;-70
2022/09/01 10:59:23;;;;;;;5.15;1.40;;;36.90;53.30;;;;;;4972685;28;20042;-70
2022/09/01 11:01:48;;;;;;;6.60;1.23;;;36.60;53.80;;;;;;4973235;28;20038;-68
2022/09/01 11:04:27;;;;;;;4.03;1.20;;;36.60;53.30;;;;;;4973333;28;20037;-67
2022/09/01 11:07:25;;;;;;;3.92;1.13;;;36.30;53.40;;;;;;4973091;28;20022;-67
2022/09/01 11:10:09;;;;;;;6.03;1.25;;;36.10;53.50;;;;;;4972960;28;20054;-69
2022/09/01 11:13:00;;;;;;;3.33;1.23;;;36.10;53.10;;;;;;4973115;28;20125;-67
2022/09/01 11:15:35;;;;;;;3.83;1.73;;;36.20;52.80;;;;;;4973576;28;20030;-68
2022/09/01 11:18:02;;;;;;;3.75;0.93;;;36.20;53.00;;;;;;4973383;28;20033;-68
2022/09/01 11:20:39;;;;;;;3.30;1.20;;;36.20;52.10;;;;;;4973615;28;20053;-67
2022/09/01 11:23:21;;;;;;;4.95;0.93;;;36.50;51.90;;;;;;4973525;28;20045;-67
2022/09/01 11:26:34;;;;;;;4.72;1.25;;;36.60;51.10;;;;;;4973459;28;20107;-70
2022/09/01 11:29:00;;;;;;;4.53;1.38;;;36.40;51.10;;;;;;4961704;28;20027;-67
2022/09/01 11:31:36;;;;;;;2.45;0.77;;;36.00;51.30;;;;;;4973246;28;20018;-68
2022/09/01 11:34:20;;;;;;;2.83;0.88;;;35.90;51.10;;;;;;4972372;28;20118;-66
2022/09/01 11:36:57;;;;;;;5.43;1.17;;;35.80;51.50;;;;;;4973187;28;20026;-67
2022/09/01 11:39:35;;;;;;;3.67;1.10;;;35.70;51.20;;;;;;4972618;28;20493;-67
2022/09/01 11:42:13;;;;;;;2.75;0.95;;;35.50;51.20;;;;;;4972730;28;20462;-67
2022/09/01 11:45:14;;;;;;;4.93;1.33;;;35.70;50.80;;;;;;4971630;28;20054;-68
2022/09/01 11:47:44;;;;;;;3.35;1.00;;;35.60;50.90;;;;;;4971764;28;20015;-69
2022/09/01 11:50:20;;;;;;;5.13;1.60;;;35.70;51.10;;;;;;4971711;28;20022;-69
2022/09/01 11:52:58;;;;;;;2.88;1.30;;;35.60;50.60;;;;;;4972785;28;20385;-67
2022/09/01 11:55:31;;;;;;;2.60;1.02;;;35.80;50.40;;;;;;4972948;28;20042;-69
2022/09/01 11:57:57;;;;;;;1.92;0.90;;;35.70;50.40;;;;;;4973115;28;20038;-69
2022/09/01 12:00:29;;;;;;;1.58;1.00;;;35.80;50.80;;;;;;4972887;28;20035;-69
2022/09/01 12:02:55;;;;;;;1.67;0.85;;;35.80;50.30;;;;;;4974457;28;20023;-69
2022/09/01 12:05:34;;;;;;;6.13;1.25;;;35.90;50.00;;;;;;4976273;28;20037;-66
2022/09/01 12:08:03;;;;;;;2.45;0.90;;;35.80;50.00;;;;;;4976425;28;20037;-66
2022/09/01 12:10:34;;;;;;;4.80;1.10;;;35.70;50.10;;;;;;4976415;28;20057;-67
2022/09/01 12:13:03;;;;;;;;;;;35.70;50.20;;;;;;4977012;28;20030;-66
2022/09/01 12:15:29;;;;;;;1.95;1.13;;;35.70;50.20;;;;;;4976189;28;20611;-66
2022/09/01 12:18:18;;;;;;;1.83;0.80;;;35.70;50.20;;;;;;4976173;28;20037;-65
2022/09/01 12:20:45;;;;;;;1.70;1.00;;;35.60;50.80;;;;;;4974534;28;20043;-69
2022/09/01 12:23:34;;;;;;;3.05;0.82;;;35.70;49.70;;;;;;4976498;28;20338;-71
2022/09/01 12:26:23;;;;;;;3.03;1.00;;;35.60;49.80;;;;;;4976189;28;20027;-70
2022/09/01 12:28:49;;;;;;;2.00;1.08;;;35.70;49.70;;;;;;4974758;28;20057;-66
2022/09/01 12:31:21;;;;;;;3.45;0.77;;;35.70;49.80;;;;;;4975975;28;20089;-68
2022/09/01 12:33:47;;;;;;;5.25;0.90;;;35.70;49.70;;;;;;4976107;28;20062;-66
2022/09/01 12:36:20;;;;;;;2.63;0.82;;;35.60;50.10;;;;;;4975641;28;20027;-66
2022/09/01 12:38:46;;;;;;;1.75;0.88;;;35.20;50.10;;;;;;4991651;28;20464;-66
2022/09/01 12:41:31;;;;;;;2.17;0.60;;;34.90;50.30;;;;;;4995082;28;20388;-69
2022/09/01 12:44:32;;;;;;;4.43;0.90;;;34.40;50.50;;;;;;4995414;28;20022;-66
2022/09/01 12:47:03;;;;;;;1.77;0.90;;;33.50;51.10;;;;;;4995378;28;20114;-67
2022/09/01 12:49:44;;;;;;;2.60;0.90;;;32.70;51.80;;;;;;4995063;28;20479;-67
2022/09/01 12:52:18;;;;;;;5.00;1.10;;;32.10;52.30;;;;;;4994890;28;20054;-67
2022/09/01 12:54:49;;;;;;;1.63;0.98;;;31.70;53.40;;;;;;4993741;28;20543;-66
2022/09/01 12:57:32;;;;;;;3.70;1.23;;;31.30;53.40;;;;;;4994707;28;20022;-65
2022/09/01 13:00:18;;;;;;;2.17;0.80;;;30.90;53.70;;;;;;4995167;28;20042;-68
2022/09/01 13:02:51;;;;;;;3.00;0.70;;;30.60;53.90;;;;;;4995109;28;20022;-67
2022/09/01 13:05:34;;;;;;;3.85;0.80;;;30.30;54.40;;;;;;4994976;28;20022;-68
2022/09/01 13:08:16;;;;;;;6.15;2.25;;;29.90;55.10;;;;;;4995045;28;20030;-65
2022/09/01 13:10:45;;;;;;;1.98;1.10;;;29.60;55.40;;;;;;4994778;28;20058;-67
2022/09/01 13:13:12;;;;;;;1.35;0.85;;;29.40;55.60;;;;;;4994424;28;20034;-67
2022/09/01 13:15:41;;;;;;;6.60;1.30;;;29.30;55.40;;;;;;4994459;28;20026;-67